Wetterdaten: aktuell Montag, 03.08.2020 10:13
Datum Zeit Temp. A. Feuchte A. Luftdruck Regen Wind Richtung Richtung Taupunkt Windchill Windben
03.08.2020 10:13 17,1 C 90 % 1011,5 hPa 1,0 l/m 0,0 km/h (0 Bft) N 0 15,4 C 17,1 C 0,0 km/h (0 Bft)
03.08.2020 09:13 17,1 C 91 % 1011,5 hPa 0,2 l/m 3,2 km/h (1 Bft) W-NW 292 15,6 C 17,1 C 3,2 km/h (1 Bft)
03.08.2020 08:13 16,6 C 93 % 1011,6 hPa 0,4 l/m 4,8 km/h (1 Bft) W-NW 292 15,5 C 16,6 C 4,8 km/h (1 Bft)
03.08.2020 07:13 16,3 C 93 % 1011,7 hPa 0,2 l/m 1,6 km/h (1 Bft) W-NW 292 15,2 C 16,3 C 1,6 km/h (1 Bft)
03.08.2020 06:13 16,1 C 93 % 1012,0 hPa 0,0 l/m 3,2 km/h (1 Bft) SW 225 15,0 C 16,1 C 6,4 km/h (2 Bft)
03.08.2020 05:13 16,1 C 93 % 1012,0 hPa 0,0 l/m 3,2 km/h (1 Bft) W-SW 247 15,0 C 16,1 C 4,8 km/h (1 Bft)
03.08.2020 04:13 16,2 C 93 % 1011,9 hPa 0,0 l/m 0,0 km/h (0 Bft) W-SW 247 15,1 C 16,2 C 1,6 km/h (1 Bft)
03.08.2020 03:13 16,2 C 93 % 1012,4 hPa 0,0 l/m 3,2 km/h (1 Bft) W-SW 247 15,1 C 16,2 C 4,8 km/h (1 Bft)
03.08.2020 02:13 16,5 C 93 % 1012,9 hPa 0,0 l/m 4,8 km/h (1 Bft) W-SW 247 15,4 C 16,5 C 6,4 km/h (2 Bft)
03.08.2020 01:13 16,6 C 93 % 1013,4 hPa 0,0 l/m 4,8 km/h (1 Bft) W-SW 247 15,5 C 16,6 C 6,4 km/h (2 Bft)
03.08.2020 00:13 16,5 C 92 % 1013,5 hPa 0,0 l/m 9,7 km/h (2 Bft) W-SW 247 15,2 C 14,9 C 12,9 km/h (3 Bft)
02.08.2020 23:13 16,7 C 92 % 1013,9 hPa 0,0 l/m 4,8 km/h (1 Bft) W-SW 247 15,4 C 16,7 C 4,8 km/h (1 Bft)
02.08.2020 22:13 17,1 C 91 % 1013,7 hPa 0,0 l/m 1,6 km/h (1 Bft) W 270 15,6 C 17,1 C 3,2 km/h (1 Bft)
02.08.2020 21:13 17,5 C 90 % 1013,7 hPa 0,0 l/m 4,8 km/h (1 Bft) W-NW 292 15,8 C 17,5 C 6,4 km/h (2 Bft)
02.08.2020 20:13 18,9 C 90 % 1013,4 hPa 0,0 l/m 12,9 km/h (3 Bft) W-SW 247 17,2 C 16,5 C 17,7 km/h (3 Bft)
02.08.2020 19:13 19,7 C 89 % 1013,0 hPa 0,0 l/m 3,2 km/h (1 Bft) S-SW 202 17,8 C 19,7 C 3,2 km/h (1 Bft)
02.08.2020 18:13 20,3 C 87 % 1012,9 hPa 0,0 l/m 4,8 km/h (1 Bft) S-SW 202 18,1 C 20,3 C 6,4 km/h (2 Bft)
02.08.2020 17:13 21,2 C 84 % 1013,1 hPa 0,0 l/m 0,0 km/h (0 Bft) N 0 18,4 C 21,2 C 0,0 km/h (0 Bft)
02.08.2020 16:13 20,3 C 87 % 1013,2 hPa 0,0 l/m 4,8 km/h (1 Bft) S 180 18,1 C 20,3 C 6,4 km/h (2 Bft)
02.08.2020 15:13 20,1 C 87 % 1013,6 hPa 0,0 l/m 6,4 km/h (2 Bft) S-SW 202 17,9 C 20,1 C 6,4 km/h (2 Bft)
02.08.2020 14:13 19,5 C 89 % 1014,0 hPa 0,0 l/m 4,8 km/h (1 Bft) W-SW 247 17,6 C 19,5 C 6,4 km/h (2 Bft)
02.08.2020 13:13 18,3 C 88 % 1014,4 hPa 0,0 l/m 12,9 km/h (3 Bft) W 270 16,3 C 15,8 C 14,5 km/h (3 Bft)
02.08.2020 12:13 19,3 C 88 % 1014,5 hPa 0,0 l/m 12,9 km/h (3 Bft) W 270 17,3 C 17,0 C 16,1 km/h (3 Bft)
02.08.2020 11:13 18,9 C 91 % 1014,5 hPa 0,0 l/m 9,7 km/h (2 Bft) SW 225 17,4 C 17,5 C 14,5 km/h (3 Bft)
02.08.2020 11:00 18,8 C 90 % 1014,4 hPa 0,0 l/m 9,7 km/h (2 Bft) S-SW 202 17,1 C 17,4 C 12,9 km/h (3 Bft)
_ Min-Zeit 05:29 16:58 08:42 - 13:22 - - 05:29 23:48 13:28
Minimum _ 15,9 C 82 % 1011,4 hPa - 0,0 km/h (0 Bft) - - 14,8 C 13,8 C 0,0 km/h (0 Bft)
_ Max-Zeit 16:53 01:07 12:10 06:57 11:55 - - 16:53 16:53 12:02
Maximum _ 21,6 C 93 % 1014,7 hPa 0,2 l/m 22,5 km/h
SW (4 Bft)
- - 19,0 C 21,6 C 33,8 km/h
W-SW (5 Bft)
Durchschnitt _ 18,0 C 90 % 1013,1 hPa #1,8 l/m 5,0 km/h (1 Bft) SW - 16,4 C 17,6 C 7,3 km/h (2 Bft)